Time;durP1;ratioP1;P1;durP2;ratioP2;P2;SDS_P1;SDS_P2;PMS_P1;PMS_P2;Temp;Humidity;BMP_temperature;BMP_pressure;BME280_temperature;BME280_humidity;BME280_pressure;Samples;Min_cycle;Max_cycle;Signal;HPM_P1;HPM_P2
2021/06/14 00:01:22;;;;;;;13.43;5.25;;;16.30;99.90;;;;;;5042956;28;20053;-79
2021/06/14 00:03:48;;;;;;;9.18;6.07;;;16.30;99.90;;;;;;5040794;28;20049;-79
2021/06/14 00:06:15;;;;;;;10.77;6.05;;;16.20;99.90;;;;;;5057540;28;20079;-79
2021/06/14 00:08:43;;;;;;;12.25;5.40;;;16.20;99.90;;;;;;5040595;28;20049;-80
2021/06/14 00:11:11;;;;;;;11.32;5.45;;;16.20;99.90;;;;;;5042356;28;20056;-79
2021/06/14 00:13:38;;;;;;;10.50;6.53;;;16.20;99.90;;;;;;5078361;28;20045;-79
2021/06/14 00:16:08;;;;;;;11.75;5.95;;;16.20;99.90;;;;;;5055347;28;20049;-79
2021/06/14 00:18:36;;;;;;;12.57;6.07;;;16.10;99.90;;;;;;5040125;28;20049;-79
2021/06/14 00:21:06;;;;;;;10.30;6.10;;;16.10;99.90;;;;;;5047126;28;20388;-79
2021/06/14 00:23:33;;;;;;;13.20;6.30;;;16.00;99.90;;;;;;5040235;28;20057;-79
2021/06/14 00:26:04;;;;;;;12.65;5.85;;;16.00;99.90;;;;;;5037125;28;20594;-79
2021/06/14 00:28:31;;;;;;;11.93;6.88;;;15.90;99.90;;;;;;5057032;28;20080;-80
2021/06/14 00:30:57;;;;;;;12.00;6.35;;;15.90;99.90;;;;;;5047750;28;20090;-80
2021/06/14 00:33:26;;;;;;;11.23;5.85;;;15.90;99.90;;;;;;5041348;28;20116;-79
2021/06/14 00:35:52;;;;;;;14.18;5.43;;;15.80;99.90;;;;;;5041927;28;20056;-79
2021/06/14 00:38:20;;;;;;;11.45;6.68;;;15.80;99.90;;;;;;5037002;28;20109;-79
2021/06/14 00:40:48;;;;;;;11.73;6.22;;;15.70;99.90;;;;;;5036457;28;20051;-79
2021/06/14 00:43:16;;;;;;;10.68;5.57;;;15.70;99.90;;;;;;5040266;28;20060;-80
2021/06/14 00:45:46;;;;;;;13.02;6.47;;;15.70;99.90;;;;;;5041586;28;20141;-80
2021/06/14 00:48:14;;;;;;;13.65;6.32;;;15.60;99.90;;;;;;5033197;28;20049;-80
2021/06/14 00:50:52;;;;;;;11.38;5.70;;;15.60;99.90;;;;;;5041682;28;20059;-80
2021/06/14 00:53:27;;;;;;;7.82;5.07;;;15.60;99.90;;;;;;5048561;28;20056;-80
2021/06/14 00:55:55;;;;;;;14.07;5.35;;;15.60;99.90;;;;;;5058441;28;20052;-80
2021/06/14 00:58:22;;;;;;;5.97;4.78;;;15.50;99.90;;;;;;5047917;28;20389;-80
2021/06/14 01:00:49;;;;;;;10.52;5.70;;;15.60;99.90;;;;;;5042483;28;20051;-80
2021/06/14 01:03:17;;;;;;;11.32;5.63;;;15.50;99.90;;;;;;5060625;28;20128;-80
2021/06/14 01:05:49;;;;;;;12.70;5.78;;;15.50;99.90;;;;;;5044029;28;20042;-81
2021/06/14 01:08:16;;;;;;;11.70;5.78;;;15.50;99.90;;;;;;5044595;28;20453;-80
2021/06/14 01:10:44;;;;;;;18.25;6.93;;;15.50;99.90;;;;;;5045132;28;20836;-79
2021/06/14 01:13:36;;;;;;;10.88;6.40;;;15.50;99.90;;;;;;5044185;28;20467;-80
2021/06/14 01:16:16;;;;;;;12.60;6.07;;;15.50;99.90;;;;;;5075569;28;20152;-80
2021/06/14 01:19:01;;;;;;;13.30;6.15;;;15.40;99.90;;;;;;5056187;28;20053;-80
2021/06/14 01:21:44;;;;;;;10.23;6.63;;;15.40;99.90;;;;;;5047532;28;20049;-80
2021/06/14 01:24:32;;;;;;;12.00;6.43;;;15.30;99.90;;;;;;5057013;28;20408;-81
2021/06/14 01:27:03;;;;;;;9.32;6.40;;;15.20;99.90;;;;;;5046736;28;20047;-79
2021/06/14 01:29:31;;;;;;;13.15;5.60;;;15.20;99.90;;;;;;5049800;28;20051;-79
2021/06/14 01:31:59;;;;;;;8.60;5.30;;;15.20;99.90;;;;;;5076970;28;20132;-80
2021/06/14 01:34:29;;;;;;;8.05;5.45;;;15.20;99.90;;;;;;5034347;28;20049;-80
2021/06/14 01:36:58;;;;;;;10.55;5.07;;;15.20;99.90;;;;;;5044148;28;20041;-79
2021/06/14 01:39:27;;;;;;;9.32;5.28;;;15.10;99.90;;;;;;5044160;28;20140;-80
2021/06/14 01:41:56;;;;;;;8.45;5.57;;;15.10;99.90;;;;;;5045429;28;20049;-79
2021/06/14 01:44:25;;;;;;;9.88;5.22;;;15.10;99.90;;;;;;5051716;28;20451;-79
2021/06/14 01:46:56;;;;;;;14.82;5.60;;;15.00;99.90;;;;;;5045332;28;20143;-79
2021/06/14 01:49:24;;;;;;;9.68;5.55;;;15.00;99.90;;;;;;5044778;28;20488;-79
2021/06/14 01:51:51;;;;;;;9.07;5.18;;;14.90;99.90;;;;;;5048480;28;20503;-80
2021/06/14 01:54:18;;;;;;;10.13;4.72;;;14.90;99.90;;;;;;5046843;28;20052;-80
2021/06/14 01:56:58;;;;;;;10.30;4.80;;;14.90;99.90;;;;;;5049772;28;20048;-80
2021/06/14 01:59:29;;;;;;;8.95;4.00;;;14.90;99.90;;;;;;5038292;28;20103;-80
2021/06/14 02:02:02;;;;;;;4.90;4.13;;;14.90;99.90;;;;;;5038429;28;20053;-80
2021/06/14 02:04:30;;;;;;;7.93;4.10;;;14.90;99.90;;;;;;5041540;28;20053;-80
2021/06/14 02:06:57;;;;;;;7.45;4.30;;;14.90;99.90;;;;;;5058889;28;20061;-80
2021/06/14 02:09:24;;;;;;;8.18;4.10;;;14.90;99.90;;;;;;5040499;28;20056;-80
2021/06/14 02:11:54;;;;;;;8.25;4.10;;;14.90;99.90;;;;;;5039107;28;20064;-80
2021/06/14 02:14:28;;;;;;;10.13;4.57;;;15.00;99.90;;;;;;5043211;28;20095;-79
2021/06/14 02:16:56;;;;;;;8.98;4.38;;;14.90;99.90;;;;;;5041785;28;20045;-80
2021/06/14 02:19:24;;;;;;;8.90;5.03;;;14.90;99.90;;;;;;5045456;28;20045;-80
2021/06/14 02:21:50;;;;;;;9.65;4.75;;;14.90;99.90;;;;;;5046342;28;20155;-80
2021/06/14 02:24:17;;;;;;;11.23;5.07;;;14.90;99.90;;;;;;5042463;28;20132;-80
2021/06/14 02:26:45;;;;;;;7.72;4.45;;;14.90;99.90;;;;;;5046720;28;20049;-80
2021/06/14 02:29:14;;;;;;;7.80;4.72;;;14.90;99.90;;;;;;5047199;28;20053;-80
2021/06/14 02:31:40;;;;;;;11.35;4.85;;;14.90;99.90;;;;;;5045906;28;20053;-80
2021/06/14 02:34:08;;;;;;;9.15;4.40;;;14.80;99.90;;;;;;5051057;28;20151;-79
2021/06/14 02:36:36;;;;;;;8.10;4.50;;;14.80;99.90;;;;;;5050394;28;20055;-80
2021/06/14 02:39:17;;;;;;;10.88;5.18;;;14.80;99.90;;;;;;5044372;28;20053;-80
2021/06/14 02:41:45;;;;;;;7.97;4.15;;;14.80;99.90;;;;;;5057291;28;20057;-80
2021/06/14 02:44:12;;;;;;;10.65;4.65;;;14.70;99.90;;;;;;5048787;28;20128;-80
2021/06/14 02:46:43;;;;;;;7.28;4.43;;;14.70;99.90;;;;;;5040049;28;20053;-80
2021/06/14 02:49:11;;;;;;;7.22;4.38;;;14.70;99.90;;;;;;5037803;28;20053;-80
2021/06/14 02:51:39;;;;;;;6.47;4.03;;;14.70;99.90;;;;;;5046355;28;20041;-80
2021/06/14 02:54:14;;;;;;;9.75;3.95;;;14.60;99.90;;;;;;5041776;28;20064;-80
2021/06/14 02:56:41;;;;;;;11.27;4.25;;;14.60;99.90;;;;;;5056952;28;20932;-79
2021/06/14 02:59:12;;;;;;;9.77;4.70;;;14.60;99.90;;;;;;5042036;28;20112;-79
2021/06/14 03:01:40;;;;;;;6.20;4.18;;;14.60;99.90;;;;;;5048069;28;20049;-81
2021/06/14 03:04:07;;;;;;;8.23;4.55;;;14.50;99.90;;;;;;5044320;28;20057;-80
2021/06/14 03:06:35;;;;;;;8.52;4.85;;;14.50;99.90;;;;;;5042545;28;20060;-80
2021/06/14 03:09:06;;;;;;;8.40;4.30;;;14.50;99.90;;;;;;5074610;28;20056;-80
2021/06/14 03:11:34;;;;;;;16.55;4.97;;;14.50;99.90;;;;;;5049755;28;20045;-80
2021/06/14 03:14:03;;;;;;;12.95;5.03;;;14.40;99.90;;;;;;5037311;28;20053;-80
2021/06/14 03:16:31;;;;;;;11.20;4.70;;;14.40;99.90;;;;;;5036857;28;20550;-80
2021/06/14 03:18:59;;;;;;;10.40;4.72;;;14.30;99.90;;;;;;5038535;28;20049;-80
2021/06/14 03:21:29;;;;;;;9.20;4.78;;;14.30;99.90;;;;;;5046940;28;20041;-80
2021/06/14 03:23:56;;;;;;;10.43;4.63;;;14.30;99.90;;;;;;5040342;28;20049;-80
2021/06/14 03:26:28;;;;;;;8.02;4.50;;;14.30;99.90;;;;;;5044502;28;20112;-80
2021/06/14 03:28:56;;;;;;;6.85;4.18;;;14.30;99.90;;;;;;5039857;28;20045;-79
2021/06/14 03:31:26;;;;;;;9.20;4.68;;;14.30;99.90;;;;;;5048437;28;20068;-79
2021/06/14 03:33:54;;;;;;;10.00;4.40;;;14.20;99.90;;;;;;5039807;28;20049;-80
2021/06/14 03:36:22;;;;;;;9.73;5.18;;;14.20;99.90;;;;;;5078145;28;20051;-80
2021/06/14 03:38:51;;;;;;;10.82;5.10;;;14.20;99.90;;;;;;5040218;28;20057;-80
2021/06/14 03:41:19;;;;;;;10.02;4.93;;;14.20;99.90;;;;;;5048012;28;20049;-80
2021/06/14 03:43:46;;;;;;;7.75;4.82;;;14.20;99.90;;;;;;5050332;28;20053;-80
2021/06/14 03:46:13;;;;;;;10.13;4.70;;;14.20;99.90;;;;;;5043331;28;20067;-81
2021/06/14 03:48:40;;;;;;;10.00;4.57;;;14.10;99.90;;;;;;5040811;28;20053;-79
2021/06/14 03:51:07;;;;;;;8.25;4.70;;;14.10;99.90;;;;;;5040840;28;20353;-79
2021/06/14 03:53:34;;;;;;;11.20;4.95;;;14.10;99.90;;;;;;5044737;28;20049;-80
2021/06/14 03:56:07;;;;;;;6.70;4.75;;;14.10;99.90;;;;;;5043841;28;20059;-80
2021/06/14 03:58:35;;;;;;;7.93;4.53;;;14.10;99.90;;;;;;5047941;28;20381;-80
2021/06/14 04:01:03;;;;;;;7.65;4.40;;;14.20;99.90;;;;;;5040850;28;20045;-79
2021/06/14 04:03:30;;;;;;;9.43;5.00;;;14.20;99.90;;;;;;5034761;28;20044;-80
2021/06/14 04:06:02;;;;;;;9.68;4.88;;;14.30;99.90;;;;;;5053255;28;20045;-80
2021/06/14 04:08:29;;;;;;;14.27;4.32;;;14.30;99.90;;;;;;5070299;28;20060;-80
2021/06/14 04:10:56;;;;;;;12.35;5.40;;;14.40;99.90;;;;;;5041991;28;20132;-80
2021/06/14 04:13:23;;;;;;;8.68;4.57;;;14.40;99.90;;;;;;5047495;28;20055;-81
2021/06/14 04:15:50;;;;;;;7.00;4.28;;;14.50;99.90;;;;;;5040366;28;20416;-80
2021/06/14 04:18:16;;;;;;;12.02;4.45;;;14.50;99.90;;;;;;5038282;28;20055;-79
2021/06/14 04:20:43;;;;;;;14.60;4.65;;;14.60;99.90;;;;;;5060033;28;20566;-80
2021/06/14 04:23:10;;;;;;;6.70;4.05;;;14.70;99.90;;;;;;5043989;28;20045;-81
2021/06/14 04:25:37;;;;;;;11.48;4.60;;;14.80;99.90;;;;;;5042675;28;22307;-79
2021/06/14 04:28:06;;;;;;;10.10;4.72;;;14.80;99.90;;;;;;5039944;28;20053;-79
2021/06/14 04:30:36;;;;;;;10.05;4.45;;;14.90;99.90;;;;;;5054094;28;20049;-79
2021/06/14 04:33:03;;;;;;;8.00;4.20;;;15.00;99.90;;;;;;5069656;28;20045;-80
2021/06/14 04:35:30;;;;;;;11.35;5.35;;;15.00;99.90;;;;;;5037436;28;20053;-79
2021/06/14 04:37:57;;;;;;;8.38;4.15;;;15.10;99.90;;;;;;5055018;28;20050;-80
2021/06/14 04:40:26;;;;;;;10.68;4.18;;;15.20;99.90;;;;;;5042205;28;20080;-80
2021/06/14 04:42:52;;;;;;;12.27;4.80;;;15.30;99.90;;;;;;5053041;28;20112;-80
2021/06/14 04:45:23;;;;;;;7.97;4.05;;;15.40;99.90;;;;;;5044354;28;20067;-79
2021/06/14 04:47:50;;;;;;;8.50;4.32;;;15.50;99.90;;;;;;5062241;28;20103;-79
2021/06/14 04:50:19;;;;;;;10.45;4.43;;;15.60;99.90;;;;;;5058338;28;20051;-80
2021/06/14 04:52:46;;;;;;;7.50;4.07;;;15.80;99.90;;;;;;5034781;28;20052;-79
2021/06/14 04:55:13;;;;;;;10.73;4.68;;;15.90;99.90;;;;;;5043738;28;20053;-79
2021/06/14 04:57:39;;;;;;;7.45;4.10;;;16.00;99.90;;;;;;5037090;28;20049;-79
2021/06/14 05:00:08;;;;;;;7.43;4.75;;;16.10;99.90;;;;;;5039682;28;20062;-79
2021/06/14 05:02:35;;;;;;;10.98;4.72;;;16.30;99.90;;;;;;5039445;28;20076;-80
2021/06/14 05:05:03;;;;;;;7.07;3.97;;;16.40;99.90;;;;;;5072835;28;20052;-80
2021/06/14 05:07:30;;;;;;;10.30;4.55;;;16.50;99.90;;;;;;5041517;28;20049;-80
2021/06/14 05:09:57;;;;;;;11.15;5.30;;;16.60;99.90;;;;;;5041757;28;20053;-79
2021/06/14 05:12:24;;;;;;;9.13;3.72;;;16.70;99.90;;;;;;5049687;28;20155;-79
2021/06/14 05:14:51;;;;;;;11.20;4.63;;;16.80;99.90;;;;;;5037349;28;20134;-80
2021/06/14 05:17:18;;;;;;;8.45;4.43;;;17.00;99.90;;;;;;5073564;28;20049;-80
2021/06/14 05:19:45;;;;;;;11.57;5.13;;;17.10;99.90;;;;;;5043816;28;20048;-80
2021/06/14 05:22:13;;;;;;;9.82;4.28;;;17.20;99.90;;;;;;5042830;28;20582;-80
2021/06/14 05:24:40;;;;;;;7.93;4.22;;;17.30;99.90;;;;;;5038594;28;20108;-79
2021/06/14 05:27:07;;;;;;;13.52;5.55;;;17.40;99.90;;;;;;5040425;28;20067;-79
2021/06/14 05:29:34;;;;;;;10.05;4.78;;;17.60;99.90;;;;;;5038878;28;20053;-79
2021/06/14 05:32:01;;;;;;;12.30;4.88;;;17.70;99.90;;;;;;5043828;28;24107;-81
2021/06/14 05:34:28;;;;;;;10.48;4.40;;;17.80;99.90;;;;;;5038979;28;20045;-80
2021/06/14 05:36:56;;;;;;;9.10;4.40;;;18.00;99.90;;;;;;5045105;28;20049;-80
2021/06/14 05:39:23;;;;;;;12.00;4.90;;;18.10;99.90;;;;;;5050202;28;20045;-79
2021/06/14 05:41:50;;;;;;;8.60;3.95;;;18.20;99.90;;;;;;5040983;28;20067;-80
2021/06/14 05:44:17;;;;;;;12.30;4.45;;;18.30;99.50;;;;;;5020587;28;20048;-79
2021/06/14 05:46:44;;;;;;;10.52;4.43;;;18.40;99.10;;;;;;5045102;28;20052;-79
2021/06/14 05:49:11;;;;;;;10.20;4.15;;;18.60;98.80;;;;;;5053588;28;20053;-79
2021/06/14 05:51:38;;;;;;;9.68;4.22;;;18.70;98.70;;;;;;5049605;28;20858;-80
2021/06/14 05:54:06;;;;;;;9.02;3.92;;;18.80;98.10;;;;;;5042901;28;20065;-79
2021/06/14 05:56:33;;;;;;;7.82;4.32;;;18.90;97.40;;;;;;5044973;28;20056;-80
2021/06/14 05:59:00;;;;;;;8.82;4.20;;;19.00;98.20;;;;;;5038636;28;20045;-80
2021/06/14 06:01:29;;;;;;;11.98;4.25;;;19.20;97.70;;;;;;5059846;28;20103;-80
2021/06/14 06:03:56;;;;;;;9.32;4.38;;;19.30;97.10;;;;;;5047890;28;20053;-80
2021/06/14 06:06:23;;;;;;;9.30;4.43;;;19.40;97.10;;;;;;5043889;28;20085;-80
2021/06/14 06:08:49;;;;;;;12.25;4.18;;;19.50;97.40;;;;;;5034939;28;20047;-79
2021/06/14 06:11:16;;;;;;;10.02;3.88;;;19.60;96.10;;;;;;5051671;28;20505;-79
2021/06/14 06:13:44;;;;;;;5.88;3.92;;;19.70;95.90;;;;;;5043396;28;20045;-79
2021/06/14 06:16:11;;;;;;;7.82;4.00;;;19.80;95.60;;;;;;5047551;28;20051;-82
2021/06/14 06:18:37;;;;;;;9.23;3.85;;;19.90;95.10;;;;;;5045902;28;20041;-78
2021/06/14 06:21:04;;;;;;;9.48;3.95;;;20.00;94.50;;;;;;5031347;28;20048;-79
2021/06/14 06:23:31;;;;;;;8.02;3.38;;;20.10;94.20;;;;;;5027972;28;20069;-80
2021/06/14 06:25:58;;;;;;;8.75;3.38;;;20.20;93.80;;;;;;5060608;28;20084;-80
2021/06/14 06:28:25;;;;;;;8.63;3.80;;;20.40;93.10;;;;;;5043746;28;20048;-81
2021/06/14 06:30:51;;;;;;;7.93;3.35;;;20.50;92.60;;;;;;5047014;28;20423;-81
2021/06/14 06:33:20;;;;;;;7.10;3.25;;;20.60;93.20;;;;;;5048720;28;20072;-80
2021/06/14 06:35:47;;;;;;;7.75;4.13;;;20.80;93.40;;;;;;5050742;28;20099;-81
2021/06/14 06:38:14;;;;;;;7.32;3.28;;;20.90;92.40;;;;;;5044831;28;20128;-80
2021/06/14 06:40:40;;;;;;;11.32;3.40;;;21.00;91.90;;;;;;5039147;28;20564;-80
2021/06/14 06:43:07;;;;;;;8.70;3.85;;;21.00;92.20;;;;;;5046336;28;20147;-81
2021/06/14 06:45:34;;;;;;;7.85;3.28;;;21.20;91.60;;;;;;5075122;28;20063;-80
2021/06/14 06:48:01;;;;;;;7.90;3.58;;;21.30;91.20;;;;;;5045929;28;20180;-80
2021/06/14 06:50:29;;;;;;;6.20;2.90;;;21.40;91.50;;;;;;5031980;28;20045;-80
2021/06/14 06:52:56;;;;;;;9.48;3.58;;;21.50;89.60;;;;;;5044480;28;20061;-80
2021/06/14 06:55:24;;;;;;;7.85;3.13;;;21.50;90.60;;;;;;5042577;28;20053;-80
2021/06/14 06:57:50;;;;;;;6.95;3.38;;;21.70;90.70;;;;;;5042862;28;20660;-80
2021/06/14 07:00:19;;;;;;;11.07;3.28;;;21.80;90.60;;;;;;5042179;28;20061;-80
2021/06/14 07:02:47;;;;;;;4.68;3.10;;;21.90;88.50;;;;;;5050824;28;20059;-80
2021/06/14 07:05:33;;;;;;;5.82;3.30;;;22.00;88.00;;;;;;5040998;28;20033;-80
2021/06/14 07:08:00;;;;;;;11.13;3.85;;;22.10;86.00;;;;;;5044169;28;20109;-81
2021/06/14 07:10:27;;;;;;;9.40;3.35;;;22.20;87.10;;;;;;5044167;28;20079;-80
2021/06/14 07:12:56;;;;;;;8.20;3.75;;;22.30;87.40;;;;;;5062995;28;20067;-80
2021/06/14 07:15:23;;;;;;;8.20;3.95;;;22.40;86.70;;;;;;5044335;28;20141;-80
2021/06/14 07:17:50;;;;;;;5.93;3.25;;;22.50;84.40;;;;;;5050785;28;20049;-80
2021/06/14 07:20:17;;;;;;;5.57;3.30;;;22.60;84.60;;;;;;5044453;28;20068;-80
2021/06/14 07:22:44;;;;;;;12.48;3.95;;;22.60;85.40;;;;;;5042114;28;20127;-80
2021/06/14 07:25:12;;;;;;;6.70;3.15;;;22.70;83.40;;;;;;5076789;28;20084;-81
2021/06/14 07:27:41;;;;;;;6.78;3.53;;;22.80;82.90;;;;;;5044938;28;20053;-80
2021/06/14 07:30:28;;;;;;;10.55;3.30;;;22.90;80.70;;;;;;5069643;28;20064;-81
2021/06/14 07:32:55;;;;;;;7.15;3.35;;;23.00;83.50;;;;;;5039870;28;20053;-80
2021/06/14 07:35:22;;;;;;;8.73;4.10;;;23.20;83.50;;;;;;5050443;28;20051;-80
2021/06/14 07:37:50;;;;;;;8.25;3.22;;;23.30;80.60;;;;;;5057270;28;20098;-81
2021/06/14 07:40:17;;;;;;;12.18;2.80;;;23.30;82.70;;;;;;5052151;28;20045;-81
2021/06/14 07:42:44;;;;;;;7.88;3.00;;;23.50;81.30;;;;;;5045148;28;20048;-80
2021/06/14 07:45:11;;;;;;;7.40;3.20;;;23.60;80.20;;;;;;5044753;28;20136;-80
2021/06/14 07:47:38;;;;;;;6.97;2.90;;;23.70;78.30;;;;;;5040432;28;20045;-80
2021/06/14 07:50:06;;;;;;;8.70;3.00;;;23.80;80.80;;;;;;5044535;28;20484;-80
2021/06/14 07:52:33;;;;;;;8.15;3.28;;;23.90;78.20;;;;;;5043985;28;20052;-80
2021/06/14 07:55:00;;;;;;;6.90;2.97;;;24.00;77.70;;;;;;5043943;28;20144;-80
2021/06/14 07:57:27;;;;;;;7.03;2.92;;;24.20;77.40;;;;;;5044034;28;20076;-80
2021/06/14 07:59:58;;;;;;;8.18;2.95;;;24.20;74.20;;;;;;5043036;28;20057;-80
2021/06/14 08:02:25;;;;;;;12.43;3.15;;;24.30;73.30;;;;;;5052866;28;20072;-80
2021/06/14 08:04:53;;;;;;;9.32;3.10;;;24.40;76.30;;;;;;5051580;28;20134;-79
2021/06/14 08:07:20;;;;;;;11.93;2.90;;;24.50;73.90;;;;;;5051606;28;20052;-80
2021/06/14 08:09:51;;;;;;;6.40;3.03;;;24.60;71.60;;;;;;5041674;28;20076;-80
2021/06/14 08:12:18;;;;;;;6.93;3.20;;;24.70;71.60;;;;;;5042213;28;20042;-80
2021/06/14 08:14:45;;;;;;;9.25;2.95;;;24.80;70.50;;;;;;5045271;28;20052;-80
2021/06/14 08:17:13;;;;;;;5.85;3.00;;;24.90;70.20;;;;;;5047453;28;20049;-80
2021/06/14 08:19:53;;;;;;;6.28;2.92;;;24.90;70.70;;;;;;5039648;28;20072;-80
2021/06/14 08:25:03;;;;;;;11.73;3.15;;;25.00;68.70;;;;;;5040054;28;20045;-80
2021/06/14 08:25:25;;;;;;;7.45;3.45;;;25.00;69.80;;;;;;5042947;28;20063;-80
2021/06/14 08:27:52;;;;;;;9.65;3.58;;;25.00;69.50;;;;;;5041640;28;20112;-80
2021/06/14 08:30:22;;;;;;;6.63;3.05;;;25.00;70.30;;;;;;5041182;28;20053;-80
2021/06/14 08:32:51;;;;;;;9.68;4.28;;;25.10;69.20;;;;;;5041307;28;20157;-80
2021/06/14 08:35:24;;;;;;;;;;;25.20;70.30;;;;;;5044436;28;20049;-80
2021/06/14 08:37:52;;;;;;;11.65;4.40;;;25.30;69.00;;;;;;5076092;28;19963;-79
2021/06/14 08:40:36;;;;;;;12.90;4.35;;;25.40;70.70;;;;;;5044277;28;20131;-80
2021/06/14 08:43:04;;;;;;;;;;;25.50;69.10;;;;;;5042783;28;20049;-80
2021/06/14 08:45:34;;;;;;;10.02;3.97;;;25.60;70.70;;;;;;5042534;28;19929;-80
2021/06/14 08:48:02;;;;;;;8.23;4.60;;;25.70;70.50;;;;;;5041256;28;20127;-80
2021/06/14 08:50:30;;;;;;;14.02;4.88;;;25.80;69.10;;;;;;5041213;28;20461;-80
2021/06/14 08:52:57;;;;;;;9.77;4.30;;;25.90;69.20;;;;;;5042514;28;20057;-79
2021/06/14 08:55:24;;;;;;;11.65;4.32;;;26.00;68.10;;;;;;5036189;28;20053;-79
2021/06/14 08:57:51;;;;;;;11.27;4.93;;;26.00;68.20;;;;;;5040013;28;20053;-79
2021/06/14 09:00:22;;;;;;;7.72;3.78;;;26.00;66.90;;;;;;5076357;28;20049;-79
2021/06/14 09:02:50;;;;;;;9.38;4.13;;;26.00;69.20;;;;;;5043136;28;20045;-81
2021/06/14 09:05:20;;;;;;;6.75;3.90;;;26.20;67.80;;;;;;5041170;28;20504;-80
2021/06/14 09:07:49;;;;;;;13.73;4.30;;;26.20;68.40;;;;;;5039388;28;20053;-80
2021/06/14 09:10:38;;;;;;;11.02;4.70;;;26.40;69.00;;;;;;5041252;28;20049;-80
2021/06/14 09:13:25;;;;;;;13.45;4.13;;;26.50;67.30;;;;;;5043611;28;20049;-80
2021/06/14 09:16:03;;;;;;;9.95;4.38;;;26.60;68.50;;;;;;5044203;28;20131;-80
2021/06/14 09:18:31;;;;;;;9.27;4.35;;;26.70;68.40;;;;;;5051437;28;20040;-80
2021/06/14 09:21:05;;;;;;;13.30;4.25;;;26.90;68.90;;;;;;5047265;28;20049;-79
2021/06/14 09:23:52;;;;;;;12.85;3.85;;;27.00;66.10;;;;;;5039895;28;20047;-80
2021/06/14 09:26:22;;;;;;;8.18;3.80;;;27.00;67.10;;;;;;5042001;28;20050;-80
2021/06/14 09:28:50;;;;;;;15.07;4.00;;;27.00;66.60;;;;;;5063667;28;20103;-80
2021/06/14 09:31:17;;;;;;;7.15;3.92;;;27.10;65.80;;;;;;5049324;28;20057;-80
2021/06/14 09:33:46;;;;;;;9.98;3.95;;;27.10;66.60;;;;;;5042707;28;20879;-80
2021/06/14 09:36:14;;;;;;;22.92;4.07;;;27.20;64.80;;;;;;5049959;28;20048;-80
2021/06/14 09:38:41;;;;;;;15.35;4.68;;;27.30;64.70;;;;;;5054020;28;20404;-80
2021/06/14 09:41:10;;;;;;;6.80;3.72;;;27.40;66.10;;;;;;5045219;28;20136;-80
2021/06/14 09:43:39;;;;;;;14.13;5.10;;;27.60;63.50;;;;;;5045781;28;20197;-79
2021/06/14 09:46:21;;;;;;;9.02;4.50;;;27.60;62.90;;;;;;5041230;28;20128;-80
2021/06/14 09:48:50;;;;;;;9.00;4.68;;;27.70;66.50;;;;;;5046013;28;20051;-80
2021/06/14 09:51:17;;;;;;;9.05;4.13;;;27.70;62.70;;;;;;5077810;28;20127;-79
2021/06/14 09:53:52;;;;;;;13.63;3.90;;;27.80;63.90;;;;;;5040016;28;20381;-79
2021/06/14 09:56:35;;;;;;;10.80;3.83;;;27.70;64.90;;;;;;5060404;28;20079;-80
2021/06/14 09:59:07;;;;;;;9.13;3.65;;;27.80;67.00;;;;;;5049178;28;20492;-79
2021/06/14 10:01:36;;;;;;;7.53;4.38;;;28.00;64.30;;;;;;5070734;28;20044;-79
2021/06/14 10:04:09;;;;;;;9.30;4.13;;;28.10;61.80;;;;;;5058110;28;20080;-79
2021/06/14 10:06:38;;;;;;;12.13;4.20;;;28.30;61.70;;;;;;5041817;28;20061;-79
2021/06/14 10:09:14;;;;;;;12.65;3.70;;;28.30;61.80;;;;;;5040580;28;20077;-79
2021/06/14 10:11:45;;;;;;;7.40;3.92;;;28.30;64.30;;;;;;5042806;28;20049;-80
2021/06/14 10:14:13;;;;;;;8.52;3.55;;;28.40;61.00;;;;;;5045830;28;20049;-79
2021/06/14 10:16:42;;;;;;;11.35;3.42;;;28.50;61.60;;;;;;5058799;28;20053;-79
2021/06/14 10:19:14;;;;;;;9.65;3.88;;;28.60;63.60;;;;;;5041342;28;20053;-79
2021/06/14 10:21:43;;;;;;;6.55;3.38;;;28.60;59.00;;;;;;5036549;28;20045;-80
2021/06/14 10:24:13;;;;;;;7.57;3.30;;;28.50;59.10;;;;;;5042462;28;20045;-80
2021/06/14 10:26:43;;;;;;;6.82;3.42;;;28.60;58.70;;;;;;5069598;28;20063;-79
2021/06/14 10:29:14;;;;;;;10.32;3.28;;;28.60;58.30;;;;;;5047858;28;20061;-80
2021/06/14 10:31:43;;;;;;;5.90;3.78;;;28.50;62.00;;;;;;5033759;28;21434;-80
2021/06/14 10:34:12;;;;;;;17.90;3.97;;;28.60;59.30;;;;;;5048165;28;20114;-80
2021/06/14 10:36:44;;;;;;;8.45;3.75;;;28.80;58.20;;;;;;5056769;28;20536;-79
2021/06/14 10:39:13;;;;;;;5.72;3.47;;;28.80;58.60;;;;;;5040037;28;20057;-79
2021/06/14 10:41:42;;;;;;;10.02;3.90;;;28.80;59.50;;;;;;5038117;28;20103;-79
2021/06/14 10:44:10;;;;;;;9.85;4.22;;;28.80;60.30;;;;;;5058362;28;20053;-80
2021/06/14 10:46:44;;;;;;;4.78;3.45;;;29.00;62.30;;;;;;5050025;28;20045;-80
2021/06/14 10:49:13;;;;;;;12.98;4.53;;;29.20;61.60;;;;;;5046138;28;20619;-80
2021/06/14 10:51:41;;;;;;;9.45;4.22;;;29.40;60.10;;;;;;5043503;28;20060;-80
2021/06/14 10:54:10;;;;;;;9.32;4.07;;;29.50;59.70;;;;;;5044056;28;20061;-80
2021/06/14 10:56:39;;;;;;;17.58;4.35;;;29.70;59.70;;;;;;5050127;28;20045;-81
2021/06/14 10:59:11;;;;;;;9.65;4.07;;;29.90;59.80;;;;;;5044050;28;20075;-80
2021/06/14 11:01:44;;;;;;;6.45;3.67;;;30.10;59.40;;;;;;5047570;28;20152;-80
2021/06/14 11:04:26;;;;;;;7.20;4.35;;;30.30;58.50;;;;;;5063457;28;20049;-80
2021/06/14 11:06:55;;;;;;;8.00;4.25;;;30.40;60.50;;;;;;5058672;28;20041;-81
2021/06/14 11:09:22;;;;;;;8.15;3.55;;;30.50;55.20;;;;;;5046778;28;20049;-80
2021/06/14 11:11:53;;;;;;;5.70;3.30;;;30.60;58.00;;;;;;5060817;28;20049;-81
2021/06/14 11:14:35;;;;;;;9.70;3.63;;;30.70;57.90;;;;;;5044237;28;20099;-80
2021/06/14 11:17:23;;;;;;;9.68;4.03;;;30.80;57.70;;;;;;5078611;28;20045;-80
2021/06/14 11:20:00;;;;;;;9.85;3.10;;;31.10;55.60;;;;;;5058327;28;20044;-80
2021/06/14 11:22:34;;;;;;;7.60;3.80;;;31.10;56.40;;;;;;5045767;28;20041;-81
2021/06/14 11:25:16;;;;;;;13.63;3.45;;;31.40;55.50;;;;;;5041308;28;20069;-80
2021/06/14 11:27:43;;;;;;;8.40;3.63;;;31.60;55.40;;;;;;5043003;28;20049;-81
2021/06/14 11:30:13;;;;;;;9.55;3.25;;;31.90;56.40;;;;;;5082386;28;20479;-81
2021/06/14 11:32:40;;;;;;;8.85;3.25;;;32.00;54.80;;;;;;5042257;28;20141;-81
2021/06/14 11:35:08;;;;;;;10.18;3.42;;;32.10;52.40;;;;;;5045809;28;20061;-81
2021/06/14 11:37:45;;;;;;;5.90;2.83;;;32.20;55.90;;;;;;5051014;28;20095;-81
2021/06/14 11:40:15;;;;;;;6.90;2.97;;;32.50;51.70;;;;;;5042294;28;20112;-81
2021/06/14 11:42:45;;;;;;;6.95;3.58;;;32.80;52.80;;;;;;5055165;28;20045;-82
2021/06/14 11:45:29;;;;;;;8.50;4.03;;;33.20;55.30;;;;;;5042762;28;20103;-81
2021/06/14 11:47:59;;;;;;;13.70;3.28;;;33.70;51.70;;;;;;5058696;28;20128;-81
2021/06/14 11:50:29;;;;;;;8.77;2.95;;;34.00;52.90;;;;;;5039177;28;20109;-81
2021/06/14 11:53:04;;;;;;;5.03;2.53;;;34.30;50.10;;;;;;5031760;28;20072;-81
2021/06/14 11:55:35;;;;;;;7.18;3.03;;;34.60;53.40;;;;;;5059388;28;20037;-81
2021/06/14 11:58:06;;;;;;;10.63;3.20;;;35.00;50.80;;;;;;5049553;28;20043;-82
2021/06/14 12:00:36;;;;;;;4.93;3.10;;;35.40;49.50;;;;;;5043642;28;21082;-81
2021/06/14 12:03:24;;;;;;;5.55;3.20;;;35.70;48.50;;;;;;5048088;28;20087;-81
2021/06/14 12:05:52;;;;;;;7.47;3.42;;;35.70;50.00;;;;;;5043932;28;20044;-81
2021/06/14 12:08:25;;;;;;;10.77;3.47;;;35.80;46.30;;;;;;5044975;28;20045;-81
2021/06/14 12:10:54;;;;;;;7.28;3.25;;;35.90;48.80;;;;;;5048736;28;20046;-81
2021/06/14 12:13:27;;;;;;;12.05;3.58;;;36.30;46.10;;;;;;5043561;28;20051;-81
2021/06/14 12:15:56;;;;;;;8.27;3.90;;;36.90;45.70;;;;;;5048279;28;20116;-81
2021/06/14 12:18:23;;;;;;;10.65;3.78;;;37.30;46.40;;;;;;5044068;28;20049;-81
2021/06/14 12:21:02;;;;;;;7.68;3.30;;;37.70;46.70;;;;;;5038201;28;20132;-81
2021/06/14 12:23:41;;;;;;;7.85;3.47;;;38.40;47.20;;;;;;5045111;28;20060;-82
2021/06/14 12:26:10;;;;;;;11.05;3.53;;;39.10;44.50;;;;;;5030948;28;20057;-81
2021/06/14 12:28:39;;;;;;;6.80;3.67;;;39.60;42.70;;;;;;5041342;28;20117;-81
2021/06/14 12:31:10;;;;;;;8.35;3.83;;;40.00;40.80;;;;;;5075474;28;20048;-79
2021/06/14 12:33:40;;;;;;;7.15;3.78;;;40.10;40.50;;;;;;5041518;28;20114;-82
2021/06/14 12:36:08;;;;;;;10.32;3.67;;;40.10;41.80;;;;;;5046407;28;20098;-81
2021/06/14 12:38:35;;;;;;;6.13;3.30;;;40.30;43.80;;;;;;5039299;28;20049;-82
2021/06/14 12:41:04;;;;;;;12.93;3.88;;;40.60;43.80;;;;;;5057309;28;20048;-81
2021/06/14 12:43:32;;;;;;;6.20;3.35;;;40.90;40.00;;;;;;5073057;28;20056;-82
2021/06/14 12:46:00;;;;;;;11.80;3.80;;;41.00;39.30;;;;;;5078120;28;20052;-82
2021/06/14 12:48:28;;;;;;;7.40;3.90;;;41.00;40.20;;;;;;5047189;28;20053;-81
2021/06/14 12:50:56;;;;;;;7.60;3.90;;;41.10;38.70;;;;;;5046832;28;20061;-82
2021/06/14 12:53:26;;;;;;;8.10;3.70;;;41.20;40.30;;;;;;5047941;28;20120;-81
2021/06/14 12:55:55;;;;;;;8.93;3.72;;;41.20;39.80;;;;;;5062955;28;20052;-81